sensor_id;sensor_type;location;lat;lon;timestamp;P1;durP1;ratioP1;P2;durP2;ratioP2
5499;SDS011;2772;42.700;23.304;2022-08-21T08:57:57;22.63;;;12.00;;
5499;SDS011;2772;42.700;23.304;2022-08-21T09:00:24;21.10;;;12.30;;
5499;SDS011;2772;42.700;23.304;2022-08-21T09:02:51;17.80;;;11.13;;
5499;SDS011;2772;42.700;23.304;2022-08-21T09:05:24;18.13;;;9.77;;
5499;SDS011;2772;42.700;23.304;2022-08-21T09:08:05;15.80;;;10.83;;
5499;SDS011;2772;42.700;23.304;2022-08-21T09:10:46;16.30;;;11.70;;
5499;SDS011;2772;42.700;23.304;2022-08-21T09:13:24;20.77;;;11.30;;
5499;SDS011;2772;42.700;23.304;2022-08-21T09:16:00;15.67;;;10.17;;
5499;SDS011;2772;42.700;23.304;2022-08-21T09:18:35;23.57;;;10.67;;
5499;SDS011;2772;42.700;23.304;2022-08-21T09:21:14;13.30;;;9.90;;
5499;SDS011;2772;42.700;23.304;2022-08-21T09:23:50;15.77;;;9.97;;
5499;SDS011;2772;42.700;23.304;2022-08-21T09:26:25;17.30;;;9.27;;
5499;SDS011;2772;42.700;23.304;2022-08-21T09:28:58;19.60;;;10.90;;
5499;SDS011;2772;42.700;23.304;2022-08-21T09:31:27;21.43;;;11.30;;
5499;SDS011;2772;42.700;23.304;2022-08-21T09:33:57;34.47;;;10.80;;
5499;SDS011;2772;42.700;23.304;2022-08-21T09:36:25;15.27;;;10.00;;
5499;SDS011;2772;42.700;23.304;2022-08-21T09:39:00;20.77;;;10.00;;
5499;SDS011;2772;42.700;23.304;2022-08-21T09:41:28;14.50;;;9.73;;
5499;SDS011;2772;42.700;23.304;2022-08-21T09:43:57;17.53;;;9.20;;
5499;SDS011;2772;42.700;23.304;2022-08-21T09:46:24;14.20;;;9.00;;
5499;SDS011;2772;42.700;23.304;2022-08-21T09:48:54;16.93;;;9.70;;
5499;SDS011;2772;42.700;23.304;2022-08-21T09:51:23;13.00;;;8.33;;
5499;SDS011;2772;42.700;23.304;2022-08-21T09:53:54;16.97;;;7.87;;
5499;SDS011;2772;42.700;23.304;2022-08-21T09:56:27;14.00;;;9.13;;
5499;SDS011;2772;42.700;23.304;2022-08-21T09:59:15;23.90;;;9.20;;
5499;SDS011;2772;42.700;23.304;2022-08-21T10:01:51;9.13;;;6.90;;
5499;SDS011;2772;42.700;23.304;2022-08-21T10:04:20;13.10;;;7.53;;
5499;SDS011;2772;42.700;23.304;2022-08-21T10:06:48;12.13;;;7.90;;
5499;SDS011;2772;42.700;23.304;2022-08-21T10:09:16;14.03;;;7.30;;
5499;SDS011;2772;42.700;23.304;2022-08-21T10:11:47;14.57;;;8.30;;
5499;SDS011;2772;42.700;23.304;2022-08-21T10:14:23;22.27;;;8.30;;
5499;SDS011;2772;42.700;23.304;2022-08-21T10:17:01;15.87;;;7.73;;
5499;SDS011;2772;42.700;23.304;2022-08-21T10:19:36;18.90;;;8.80;;
5499;SDS011;2772;42.700;23.304;2022-08-21T10:22:13;9.30;;;7.70;;
5499;SDS011;2772;42.700;23.304;2022-08-21T10:24:50;10.17;;;7.23;;
5499;SDS011;2772;42.700;23.304;2022-08-21T10:27:26;14.70;;;8.10;;
5499;SDS011;2772;42.700;23.304;2022-08-21T10:30:03;10.73;;;8.40;;
5499;SDS011;2772;42.700;23.304;2022-08-21T10:32:39;15.47;;;8.30;;
5499;SDS011;2772;42.700;23.304;2022-08-21T10:35:17;15.00;;;8.30;;
5499;SDS011;2772;42.700;23.304;2022-08-21T10:37:51;11.10;;;7.93;;
5499;SDS011;2772;42.700;23.304;2022-08-21T10:40:27;28.83;;;9.07;;
5499;SDS011;2772;42.700;23.304;2022-08-21T10:43:04;17.87;;;9.10;;
5499;SDS011;2772;42.700;23.304;2022-08-21T10:45:57;14.23;;;9.13;;
5499;SDS011;2772;42.700;23.304;2022-08-21T10:48:29;10.80;;;7.10;;
5499;SDS011;2772;42.700;23.304;2022-08-21T10:51:04;16.17;;;8.73;;
5499;SDS011;2772;42.700;23.304;2022-08-21T10:53:41;14.73;;;8.77;;
5499;SDS011;2772;42.700;23.304;2022-08-21T10:56:18;14.13;;;8.97;;
5499;SDS011;2772;42.700;23.304;2022-08-21T10:58:57;17.37;;;9.23;;
5499;SDS011;2772;42.700;23.304;2022-08-21T11:01:33;9.40;;;7.77;;
5499;SDS011;2772;42.700;23.304;2022-08-21T11:04:16;14.90;;;9.63;;
5499;SDS011;2772;42.700;23.304;2022-08-21T11:06:52;10.30;;;7.40;;
5499;SDS011;2772;42.700;23.304;2022-08-21T11:09:25;14.90;;;8.40;;
5499;SDS011;2772;42.700;23.304;2022-08-21T11:11:54;15.30;;;7.90;;
5499;SDS011;2772;42.700;23.304;2022-08-21T11:14:29;17.50;;;7.93;;
5499;SDS011;2772;42.700;23.304;2022-08-21T11:17:02;19.50;;;9.20;;
5499;SDS011;2772;42.700;23.304;2022-08-21T11:19:35;19.73;;;9.13;;
5499;SDS011;2772;42.700;23.304;2022-08-21T11:22:08;10.60;;;8.90;;
5499;SDS011;2772;42.700;23.304;2022-08-21T11:24:42;9.00;;;8.07;;
5499;SDS011;2772;42.700;23.304;2022-08-21T11:27:17;17.60;;;12.53;;
5499;SDS011;2772;42.700;23.304;2022-08-21T11:29:52;16.20;;;8.37;;
5499;SDS011;2772;42.700;23.304;2022-08-21T11:32:45;15.60;;;9.10;;
5499;SDS011;2772;42.700;23.304;2022-08-21T11:35:21;11.03;;;7.50;;
5499;SDS011;2772;42.700;23.304;2022-08-21T11:38:01;22.57;;;8.80;;
5499;SDS011;2772;42.700;23.304;2022-08-21T11:40:54;13.83;;;7.07;;
5499;SDS011;2772;42.700;23.304;2022-08-21T11:43:33;9.73;;;7.27;;
5499;SDS011;2772;42.700;23.304;2022-08-21T11:46:07;17.23;;;7.50;;
5499;SDS011;2772;42.700;23.304;2022-08-21T11:48:43;12.20;;;6.83;;
5499;SDS011;2772;42.700;23.304;2022-08-21T11:51:20;7.83;;;7.03;;
5499;SDS011;2772;42.700;23.304;2022-08-21T11:53:55;11.90;;;7.53;;
5499;SDS011;2772;42.700;23.304;2022-08-21T11:56:29;14.47;;;7.50;;
5499;SDS011;2772;42.700;23.304;2022-08-21T11:59:00;18.63;;;7.50;;
5499;SDS011;2772;42.700;23.304;2022-08-21T12:01:32;12.47;;;7.10;;
5499;SDS011;2772;42.700;23.304;2022-08-21T12:04:07;10.83;;;6.70;;
5499;SDS011;2772;42.700;23.304;2022-08-21T12:06:37;10.63;;;6.50;;
5499;SDS011;2772;42.700;23.304;2022-08-21T12:09:06;11.13;;;6.80;;
5499;SDS011;2772;42.700;23.304;2022-08-21T12:11:45;14.43;;;7.60;;
5499;SDS011;2772;42.700;23.304;2022-08-21T12:14:14;17.30;;;7.60;;
5499;SDS011;2772;42.700;23.304;2022-08-21T12:16:43;9.23;;;6.30;;
5499;SDS011;2772;42.700;23.304;2022-08-21T12:19:13;12.60;;;8.80;;
5499;SDS011;2772;42.700;23.304;2022-08-21T12:21:58;8.00;;;6.53;;
5499;SDS011;2772;42.700;23.304;2022-08-21T12:24:36;9.87;;;7.17;;
5499;SDS011;2772;42.700;23.304;2022-08-21T12:27:22;13.03;;;6.73;;
5499;SDS011;2772;42.700;23.304;2022-08-21T12:29:54;12.33;;;7.00;;
5499;SDS011;2772;42.700;23.304;2022-08-21T12:32:26;18.00;;;10.20;;
5499;SDS011;2772;42.700;23.304;2022-08-21T12:34:57;10.37;;;8.30;;
5499;SDS011;2772;42.700;23.304;2022-08-21T12:37:34;14.43;;;7.40;;
5499;SDS011;2772;42.700;23.304;2022-08-21T12:40:10;14.20;;;8.10;;
5499;SDS011;2772;42.700;23.304;2022-08-21T12:42:45;15.53;;;9.43;;
5499;SDS011;2772;42.700;23.304;2022-08-21T12:45:17;12.70;;;9.20;;
5499;SDS011;2772;42.700;23.304;2022-08-21T12:47:48;13.77;;;10.90;;
5499;SDS011;2772;42.700;23.304;2022-08-21T12:50:21;11.73;;;7.13;;
5499;SDS011;2772;42.700;23.304;2022-08-21T12:52:57;16.70;;;14.73;;
5499;SDS011;2772;42.700;23.304;2022-08-21T12:55:28;20.87;;;11.20;;
5499;SDS011;2772;42.700;23.304;2022-08-21T12:57:58;16.23;;;10.90;;
5499;SDS011;2772;42.700;23.304;2022-08-21T13:00:26;21.13;;;14.40;;
5499;SDS011;2772;42.700;23.304;2022-08-21T13:02:55;14.30;;;7.40;;
5499;SDS011;2772;42.700;23.304;2022-08-21T13:05:26;16.87;;;10.40;;
5499;SDS011;2772;42.700;23.304;2022-08-21T13:07:57;9.20;;;7.77;;
5499;SDS011;2772;42.700;23.304;2022-08-21T13:10:25;16.20;;;11.47;;
5499;SDS011;2772;42.700;23.304;2022-08-21T13:12:54;27.20;;;15.63;;
5499;SDS011;2772;42.700;23.304;2022-08-21T13:15:25;17.60;;;9.97;;
5499;SDS011;2772;42.700;23.304;2022-08-21T13:17:55;17.47;;;14.87;;
5499;SDS011;2772;42.700;23.304;2022-08-21T13:20:28;15.00;;;9.77;;
5499;SDS011;2772;42.700;23.304;2022-08-21T13:22:56;12.27;;;6.87;;
5499;SDS011;2772;42.700;23.304;2022-08-21T13:25:26;13.63;;;7.00;;
5499;SDS011;2772;42.700;23.304;2022-08-21T13:28:00;17.07;;;12.60;;
5499;SDS011;2772;42.700;23.304;2022-08-21T13:30:30;12.53;;;8.20;;
5499;SDS011;2772;42.700;23.304;2022-08-21T13:32:58;11.60;;;9.20;;
5499;SDS011;2772;42.700;23.304;2022-08-21T13:35:30;16.10;;;8.50;;
5499;SDS011;2772;42.700;23.304;2022-08-21T13:38:12;14.50;;;7.37;;
5499;SDS011;2772;42.700;23.304;2022-08-21T13:40:40;9.17;;;7.40;;
5499;SDS011;2772;42.700;23.304;2022-08-21T13:43:11;17.43;;;8.20;;
5499;SDS011;2772;42.700;23.304;2022-08-21T13:45:42;14.90;;;6.07;;
5499;SDS011;2772;42.700;23.304;2022-08-21T13:48:11;21.57;;;15.03;;
5499;SDS011;2772;42.700;23.304;2022-08-21T13:50:39;16.50;;;13.93;;
5499;SDS011;2772;42.700;23.304;2022-08-21T13:53:21;13.53;;;6.67;;
5499;SDS011;2772;42.700;23.304;2022-08-21T13:55:53;6.43;;;5.33;;
5499;SDS011;2772;42.700;23.304;2022-08-21T13:58:24;11.20;;;7.10;;
5499;SDS011;2772;42.700;23.304;2022-08-21T14:00:51;7.90;;;6.03;;
5499;SDS011;2772;42.700;23.304;2022-08-21T14:03:29;9.23;;;7.43;;
5499;SDS011;2772;42.700;23.304;2022-08-21T14:06:00;15.13;;;10.73;;
5499;SDS011;2772;42.700;23.304;2022-08-21T14:08:30;12.27;;;9.10;;
5499;SDS011;2772;42.700;23.304;2022-08-21T14:11:00;13.97;;;7.50;;
5499;SDS011;2772;42.700;23.304;2022-08-21T14:13:37;34.87;;;15.33;;
5499;SDS011;2772;42.700;23.304;2022-08-21T14:16:14;12.43;;;8.23;;
5499;SDS011;2772;42.700;23.304;2022-08-21T14:18:45;13.80;;;8.40;;
5499;SDS011;2772;42.700;23.304;2022-08-21T14:21:23;15.03;;;8.77;;
5499;SDS011;2772;42.700;23.304;2022-08-21T14:24:02;8.80;;;6.40;;
5499;SDS011;2772;42.700;23.304;2022-08-21T14:26:30;10.23;;;7.70;;
5499;SDS011;2772;42.700;23.304;2022-08-21T14:28:59;20.90;;;15.63;;
5499;SDS011;2772;42.700;23.304;2022-08-21T14:31:28;11.80;;;7.43;;
5499;SDS011;2772;42.700;23.304;2022-08-21T14:33:57;13.07;;;10.30;;
5499;SDS011;2772;42.700;23.304;2022-08-21T14:36:27;13.97;;;11.10;;
5499;SDS011;2772;42.700;23.304;2022-08-21T14:38:54;21.40;;;13.10;;
5499;SDS011;2772;42.700;23.304;2022-08-21T14:41:21;21.77;;;16.10;;
5499;SDS011;2772;42.700;23.304;2022-08-21T14:43:50;18.00;;;14.60;;
5499;SDS011;2772;42.700;23.304;2022-08-21T14:46:21;17.33;;;12.73;;
5499;SDS011;2772;42.700;23.304;2022-08-21T14:48:49;10.93;;;9.27;;
5499;SDS011;2772;42.700;23.304;2022-08-21T14:51:17;11.17;;;8.80;;
5499;SDS011;2772;42.700;23.304;2022-08-21T14:53:45;13.03;;;8.53;;
5499;SDS011;2772;42.700;23.304;2022-08-21T14:56:12;10.17;;;9.17;;
5499;SDS011;2772;42.700;23.304;2022-08-21T14:58:41;12.53;;;9.47;;
5499;SDS011;2772;42.700;23.304;2022-08-21T15:01:10;14.67;;;10.17;;
5499;SDS011;2772;42.700;23.304;2022-08-21T15:03:39;24.47;;;17.70;;
5499;SDS011;2772;42.700;23.304;2022-08-21T15:06:06;25.17;;;17.77;;
5499;SDS011;2772;42.700;23.304;2022-08-21T15:08:34;22.63;;;16.27;;
5499;SDS011;2772;42.700;23.304;2022-08-21T15:11:03;21.47;;;16.60;;
5499;SDS011;2772;42.700;23.304;2022-08-21T15:13:31;10.40;;;8.20;;
5499;SDS011;2772;42.700;23.304;2022-08-21T15:15:58;17.30;;;14.00;;
5499;SDS011;2772;42.700;23.304;2022-08-21T15:18:25;15.83;;;11.83;;
5499;SDS011;2772;42.700;23.304;2022-08-21T15:20:54;18.57;;;12.23;;
5499;SDS011;2772;42.700;23.304;2022-08-21T15:23:21;13.03;;;8.83;;
5499;SDS011;2772;42.700;23.304;2022-08-21T15:25:48;22.37;;;14.50;;
5499;SDS011;2772;42.700;23.304;2022-08-21T15:28:17;20.00;;;11.20;;
5499;SDS011;2772;42.700;23.304;2022-08-21T15:30:45;24.80;;;19.40;;
5499;SDS011;2772;42.700;23.304;2022-08-21T15:33:16;23.00;;;14.37;;
5499;SDS011;2772;42.700;23.304;2022-08-21T15:35:43;16.60;;;12.40;;
5499;SDS011;2772;42.700;23.304;2022-08-21T15:38:11;31.83;;;17.37;;
5499;SDS011;2772;42.700;23.304;2022-08-21T15:40:38;23.90;;;17.17;;
5499;SDS011;2772;42.700;23.304;2022-08-21T15:43:10;28.07;;;18.57;;
5499;SDS011;2772;42.700;23.304;2022-08-21T15:45:54;15.00;;;9.27;;
5499;SDS011;2772;42.700;23.304;2022-08-21T15:48:21;18.13;;;9.47;;
5499;SDS011;2772;42.700;23.304;2022-08-21T15:50:51;11.67;;;8.87;;
5499;SDS011;2772;42.700;23.304;2022-08-21T15:53:18;10.80;;;8.00;;
5499;SDS011;2772;42.700;23.304;2022-08-21T15:55:45;11.37;;;7.50;;
5499;SDS011;2772;42.700;23.304;2022-08-21T15:58:13;12.57;;;7.60;;
5499;SDS011;2772;42.700;23.304;2022-08-21T16:00:41;18.27;;;9.57;;
5499;SDS011;2772;42.700;23.304;2022-08-21T16:03:11;23.67;;;10.63;;
5499;SDS011;2772;42.700;23.304;2022-08-21T16:05:41;13.23;;;7.50;;
5499;SDS011;2772;42.700;23.304;2022-08-21T16:08:08;13.20;;;8.60;;
5499;SDS011;2772;42.700;23.304;2022-08-21T16:10:36;11.50;;;7.90;;
5499;SDS011;2772;42.700;23.304;2022-08-21T16:13:04;11.40;;;8.30;;
5499;SDS011;2772;42.700;23.304;2022-08-21T16:15:39;11.60;;;7.87;;
5499;SDS011;2772;42.700;23.304;2022-08-21T16:18:06;14.90;;;8.60;;
5499;SDS011;2772;42.700;23.304;2022-08-21T16:20:34;10.73;;;7.67;;
5499;SDS011;2772;42.700;23.304;2022-08-21T16:23:01;11.87;;;8.00;;
5499;SDS011;2772;42.700;23.304;2022-08-21T16:25:28;13.40;;;7.43;;
5499;SDS011;2772;42.700;23.304;2022-08-21T16:27:57;11.60;;;8.40;;
5499;SDS011;2772;42.700;23.304;2022-08-21T16:30:26;11.53;;;8.10;;
5499;SDS011;2772;42.700;23.304;2022-08-21T16:32:54;10.13;;;8.83;;
5499;SDS011;2772;42.700;23.304;2022-08-21T16:35:25;12.70;;;9.20;;
5499;SDS011;2772;42.700;23.304;2022-08-21T16:37:53;10.83;;;8.20;;
5499;SDS011;2772;42.700;23.304;2022-08-21T16:40:20;10.30;;;8.43;;
5499;SDS011;2772;42.700;23.304;2022-08-21T16:42:48;13.80;;;8.97;;
5499;SDS011;2772;42.700;23.304;2022-08-21T16:45:16;15.50;;;9.63;;
5499;SDS011;2772;42.700;23.304;2022-08-21T16:47:45;16.53;;;10.57;;
5499;SDS011;2772;42.700;23.304;2022-08-21T16:50:14;15.70;;;9.90;;
5499;SDS011;2772;42.700;23.304;2022-08-21T16:52:42;20.10;;;9.80;;
5499;SDS011;2772;42.700;23.304;2022-08-21T16:55:10;11.40;;;8.77;;
5499;SDS011;2772;42.700;23.304;2022-08-21T16:57:37;16.60;;;8.30;;
5499;SDS011;2772;42.700;23.304;2022-08-21T17:00:05;16.20;;;8.83;;
5499;SDS011;2772;42.700;23.304;2022-08-21T17:02:38;11.20;;;9.00;;
5499;SDS011;2772;42.700;23.304;2022-08-21T17:05:11;16.30;;;8.40;;
5499;SDS011;2772;42.700;23.304;2022-08-21T17:07:39;15.67;;;9.37;;
5499;SDS011;2772;42.700;23.304;2022-08-21T17:10:07;11.60;;;9.60;;
5499;SDS011;2772;42.700;23.304;2022-08-21T17:12:37;16.63;;;9.27;;
5499;SDS011;2772;42.700;23.304;2022-08-21T17:15:06;14.40;;;10.63;;
5499;SDS011;2772;42.700;23.304;2022-08-21T17:17:38;13.80;;;9.80;;
5499;SDS011;2772;42.700;23.304;2022-08-21T17:20:05;12.53;;;8.33;;
5499;SDS011;2772;42.700;23.304;2022-08-21T17:22:33;17.27;;;9.10;;
5499;SDS011;2772;42.700;23.304;2022-08-21T17:25:00;15.73;;;9.10;;
5499;SDS011;2772;42.700;23.304;2022-08-21T17:27:27;11.73;;;8.73;;
5499;SDS011;2772;42.700;23.304;2022-08-21T17:29:55;17.23;;;8.83;;
5499;SDS011;2772;42.700;23.304;2022-08-21T17:32:22;9.07;;;7.60;;
5499;SDS011;2772;42.700;23.304;2022-08-21T17:34:50;10.30;;;8.17;;
5499;SDS011;2772;42.700;23.304;2022-08-21T17:37:17;11.17;;;8.30;;
5499;SDS011;2772;42.700;23.304;2022-08-21T17:39:45;11.83;;;7.93;;
5499;SDS011;2772;42.700;23.304;2022-08-21T17:42:12;13.00;;;7.90;;
5499;SDS011;2772;42.700;23.304;2022-08-21T17:44:41;11.60;;;7.60;;
5499;SDS011;2772;42.700;23.304;2022-08-21T17:47:11;11.20;;;8.10;;
5499;SDS011;2772;42.700;23.304;2022-08-21T17:49:39;12.87;;;8.03;;
5499;SDS011;2772;42.700;23.304;2022-08-21T17:52:07;16.83;;;10.47;;
5499;SDS011;2772;42.700;23.304;2022-08-21T17:54:34;20.00;;;9.60;;
5499;SDS011;2772;42.700;23.304;2022-08-21T17:57:01;13.97;;;10.30;;
5499;SDS011;2772;42.700;23.304;2022-08-21T17:59:29;17.30;;;11.00;;
5499;SDS011;2772;42.700;23.304;2022-08-21T18:01:57;19.13;;;12.60;;
5499;SDS011;2772;42.700;23.304;2022-08-21T18:04:28;24.50;;;16.00;;
5499;SDS011;2772;42.700;23.304;2022-08-21T18:06:56;23.10;;;13.90;;
5499;SDS011;2772;42.700;23.304;2022-08-21T18:09:23;173.20;;;102.97;;
5499;SDS011;2772;42.700;23.304;2022-08-21T18:11:52;242.60;;;125.83;;
5499;SDS011;2772;42.700;23.304;2022-08-21T18:14:21;176.50;;;95.70;;
5499;SDS011;2772;42.700;23.304;2022-08-21T18:16:53;331.37;;;182.40;;
5499;SDS011;2772;42.700;23.304;2022-08-21T18:19:20;92.73;;;54.27;;
5499;SDS011;2772;42.700;23.304;2022-08-21T18:21:51;160.77;;;88.37;;
5499;SDS011;2772;42.700;23.304;2022-08-21T18:24:19;52.07;;;30.53;;
5499;SDS011;2772;42.700;23.304;2022-08-21T18:26:46;26.97;;;17.57;;
5499;SDS011;2772;42.700;23.304;2022-08-21T18:29:14;44.67;;;27.10;;
5499;SDS011;2772;42.700;23.304;2022-08-21T18:31:44;54.40;;;31.97;;
5499;SDS011;2772;42.700;23.304;2022-08-21T18:34:16;32.80;;;16.80;;
5499;SDS011;2772;42.700;23.304;2022-08-21T18:36:48;27.83;;;18.23;;
5499;SDS011;2772;42.700;23.304;2022-08-21T18:39:17;23.00;;;16.30;;
5499;SDS011;2772;42.700;23.304;2022-08-21T18:41:45;26.93;;;18.17;;
5499;SDS011;2772;42.700;23.304;2022-08-21T18:44:14;23.63;;;16.87;;
5499;SDS011;2772;42.700;23.304;2022-08-21T18:46:42;19.10;;;13.20;;
5499;SDS011;2772;42.700;23.304;2022-08-21T18:49:13;19.43;;;13.37;;
5499;SDS011;2772;42.700;23.304;2022-08-21T18:51:40;19.90;;;13.77;;
5499;SDS011;2772;42.700;23.304;2022-08-21T18:54:07;14.87;;;11.30;;
5499;SDS011;2772;42.700;23.304;2022-08-21T18:56:35;15.00;;;11.30;;
5499;SDS011;2772;42.700;23.304;2022-08-21T18:59:03;30.63;;;17.60;;
5499;SDS011;2772;42.700;23.304;2022-08-21T19:01:31;30.50;;;20.40;;
5499;SDS011;2772;42.700;23.304;2022-08-21T19:03:58;55.83;;;32.47;;
5499;SDS011;2772;42.700;23.304;2022-08-21T19:06:25;13.90;;;9.53;;
5499;SDS011;2772;42.700;23.304;2022-08-21T19:08:52;42.17;;;22.33;;
5499;SDS011;2772;42.700;23.304;2022-08-21T19:11:20;29.17;;;17.73;;
5499;SDS011;2772;42.700;23.304;2022-08-21T19:13:49;22.00;;;15.63;;
5499;SDS011;2772;42.700;23.304;2022-08-21T19:16:18;22.07;;;14.07;;
5499;SDS011;2772;42.700;23.304;2022-08-21T19:18:46;30.80;;;20.20;;
5499;SDS011;2772;42.700;23.304;2022-08-21T19:21:13;27.30;;;19.37;;
5499;SDS011;2772;42.700;23.304;2022-08-21T19:23:41;22.20;;;14.80;;
5499;SDS011;2772;42.700;23.304;2022-08-21T19:26:12;17.00;;;12.63;;
5499;SDS011;2772;42.700;23.304;2022-08-21T19:28:41;22.27;;;14.30;;
5499;SDS011;2772;42.700;23.304;2022-08-21T19:31:13;19.00;;;13.07;;
5499;SDS011;2772;42.700;23.304;2022-08-21T19:33:43;21.30;;;11.63;;
5499;SDS011;2772;42.700;23.304;2022-08-21T19:36:11;18.93;;;11.07;;
5499;SDS011;2772;42.700;23.304;2022-08-21T19:38:39;14.90;;;11.27;;
5499;SDS011;2772;42.700;23.304;2022-08-21T19:41:07;20.17;;;12.17;;
5499;SDS011;2772;42.700;23.304;2022-08-21T19:43:39;12.23;;;10.20;;
5499;SDS011;2772;42.700;23.304;2022-08-21T19:46:09;13.10;;;8.20;;
5499;SDS011;2772;42.700;23.304;2022-08-21T19:48:39;14.43;;;9.07;;
5499;SDS011;2772;42.700;23.304;2022-08-21T19:51:06;12.90;;;10.00;;
5499;SDS011;2772;42.700;23.304;2022-08-21T19:53:33;19.03;;;12.07;;
5499;SDS011;2772;42.700;23.304;2022-08-21T19:56:00;13.60;;;10.33;;
5499;SDS011;2772;42.700;23.304;2022-08-21T19:58:31;15.20;;;11.10;;
5499;SDS011;2772;42.700;23.304;2022-08-21T20:01:00;13.90;;;10.30;;
5499;SDS011;2772;42.700;23.304;2022-08-21T20:03:27;17.13;;;13.40;;
5499;SDS011;2772;42.700;23.304;2022-08-21T20:05:55;15.30;;;11.47;;
5499;SDS011;2772;42.700;23.304;2022-08-21T20:08:24;23.90;;;13.43;;
5499;SDS011;2772;42.700;23.304;2022-08-21T20:10:51;16.07;;;11.70;;
5499;SDS011;2772;42.700;23.304;2022-08-21T20:13:21;14.17;;;11.50;;
5499;SDS011;2772;42.700;23.304;2022-08-21T20:15:49;16.47;;;11.30;;
5499;SDS011;2772;42.700;23.304;2022-08-21T20:18:17;15.30;;;11.47;;
5499;SDS011;2772;42.700;23.304;2022-08-21T20:20:45;20.93;;;11.97;;
5499;SDS011;2772;42.700;23.304;2022-08-21T20:23:14;15.17;;;11.60;;
5499;SDS011;2772;42.700;23.304;2022-08-21T20:25:42;17.47;;;10.23;;
5499;SDS011;2772;42.700;23.304;2022-08-21T20:28:14;13.50;;;11.07;;
5499;SDS011;2772;42.700;23.304;2022-08-21T20:30:41;15.33;;;10.03;;
5499;SDS011;2772;42.700;23.304;2022-08-21T20:33:09;11.07;;;9.83;;
5499;SDS011;2772;42.700;23.304;2022-08-21T20:35:36;10.57;;;9.23;;
5499;SDS011;2772;42.700;23.304;2022-08-21T20:38:04;16.30;;;13.17;;
5499;SDS011;2772;42.700;23.304;2022-08-21T20:40:32;15.20;;;10.80;;
5499;SDS011;2772;42.700;23.304;2022-08-21T20:43:00;11.70;;;9.60;;
5499;SDS011;2772;42.700;23.304;2022-08-21T20:45:30;12.83;;;9.90;;
5499;SDS011;2772;42.700;23.304;2022-08-21T20:48:00;13.37;;;10.47;;
5499;SDS011;2772;42.700;23.304;2022-08-21T20:50:30;17.20;;;13.30;;
5499;SDS011;2772;42.700;23.304;2022-08-21T20:53:05;12.40;;;10.57;;
5499;SDS011;2772;42.700;23.304;2022-08-21T20:55:38;11.87;;;10.57;;
5499;SDS011;2772;42.700;23.304;2022-08-21T20:58:12;13.20;;;11.03;;
5499;SDS011;2772;42.700;23.304;2022-08-21T21:00:45;12.57;;;10.60;;
5499;SDS011;2772;42.700;23.304;2022-08-21T21:03:15;16.00;;;10.70;;
5499;SDS011;2772;42.700;23.304;2022-08-21T21:05:47;11.80;;;9.47;;
5499;SDS011;2772;42.700;23.304;2022-08-21T21:08:19;11.73;;;9.43;;
5499;SDS011;2772;42.700;23.304;2022-08-21T21:10:53;11.57;;;9.53;;
5499;SDS011;2772;42.700;23.304;2022-08-21T21:13:23;12.17;;;9.10;;
5499;SDS011;2772;42.700;23.304;2022-08-21T21:15:55;16.77;;;10.50;;
5499;SDS011;2772;42.700;23.304;2022-08-21T21:18:29;13.17;;;11.00;;
5499;SDS011;2772;42.700;23.304;2022-08-21T21:21:03;16.83;;;8.90;;
5499;SDS011;2772;42.700;23.304;2022-08-21T21:23:36;10.57;;;8.40;;
5499;SDS011;2772;42.700;23.304;2022-08-21T21:26:12;9.37;;;7.67;;
5499;SDS011;2772;42.700;23.304;2022-08-21T21:28:48;8.63;;;7.20;;
5499;SDS011;2772;42.700;23.304;2022-08-21T21:31:20;11.17;;;8.50;;
5499;SDS011;2772;42.700;23.304;2022-08-21T21:33:47;10.50;;;7.97;;
5499;SDS011;2772;42.700;23.304;2022-08-21T21:36:17;10.43;;;7.63;;
5499;SDS011;2772;42.700;23.304;2022-08-21T21:38:51;9.50;;;8.50;;
5499;SDS011;2772;42.700;23.304;2022-08-21T21:41:38;13.50;;;7.70;;
5499;SDS011;2772;42.700;23.304;2022-08-21T21:44:23;17.87;;;8.47;;
5499;SDS011;2772;42.700;23.304;2022-08-21T21:47:00;9.53;;;7.30;;
5499;SDS011;2772;42.700;23.304;2022-08-21T21:49:33;14.83;;;8.17;;
5499;SDS011;2772;42.700;23.304;2022-08-21T21:52:12;10.07;;;7.80;;
5499;SDS011;2772;42.700;23.304;2022-08-21T21:55:01;11.47;;;9.17;;
5499;SDS011;2772;42.700;23.304;2022-08-21T21:57:50;12.83;;;10.30;;
5499;SDS011;2772;42.700;23.304;2022-08-21T22:00:26;9.73;;;8.10;;
5499;SDS011;2772;42.700;23.304;2022-08-21T22:03:01;7.90;;;7.10;;
5499;SDS011;2772;42.700;23.304;2022-08-21T22:05:41;8.73;;;7.00;;
5499;SDS011;2772;42.700;23.304;2022-08-21T22:08:17;13.23;;;7.37;;
5499;SDS011;2772;42.700;23.304;2022-08-21T22:10:52;12.50;;;7.30;;
5499;SDS011;2772;42.700;23.304;2022-08-21T22:13:26;12.60;;;7.30;;
5499;SDS011;2772;42.700;23.304;2022-08-21T22:15:57;10.00;;;7.37;;
5499;SDS011;2772;42.700;23.304;2022-08-21T22:18:30;10.00;;;7.60;;
5499;SDS011;2772;42.700;23.304;2022-08-21T22:21:03;8.90;;;8.00;;
5499;SDS011;2772;42.700;23.304;2022-08-21T22:23:39;8.13;;;7.00;;
5499;SDS011;2772;42.700;23.304;2022-08-21T22:26:08;7.73;;;7.03;;
5499;SDS011;2772;42.700;23.304;2022-08-21T22:28:40;8.80;;;7.27;;
5499;SDS011;2772;42.700;23.304;2022-08-21T22:31:11;8.00;;;6.87;;
5499;SDS011;2772;42.700;23.304;2022-08-21T22:33:41;10.00;;;7.10;;
5499;SDS011;2772;42.700;23.304;2022-08-21T22:36:28;8.73;;;6.93;;
5499;SDS011;2772;42.700;23.304;2022-08-21T22:38:57;13.63;;;8.33;;
5499;SDS011;2772;42.700;23.304;2022-08-21T22:41:25;9.27;;;7.87;;
5499;SDS011;2772;42.700;23.304;2022-08-21T22:43:57;9.90;;;8.90;;
5499;SDS011;2772;42.700;23.304;2022-08-21T22:46:30;15.50;;;10.67;;
5499;SDS011;2772;42.700;23.304;2022-08-21T22:49:02;15.40;;;10.70;;
5499;SDS011;2772;42.700;23.304;2022-08-21T22:51:34;11.40;;;10.20;;
5499;SDS011;2772;42.700;23.304;2022-08-21T22:54:04;14.90;;;12.20;;
5499;SDS011;2772;42.700;23.304;2022-08-21T22:56:33;14.07;;;11.20;;
5499;SDS011;2772;42.700;23.304;2022-08-21T22:59:04;18.03;;;11.37;;
5499;SDS011;2772;42.700;23.304;2022-08-21T23:01:37;15.40;;;9.83;;
5499;SDS011;2772;42.700;23.304;2022-08-21T23:04:15;15.00;;;9.20;;
5499;SDS011;2772;42.700;23.304;2022-08-21T23:06:46;10.93;;;8.37;;
5499;SDS011;2772;42.700;23.304;2022-08-21T23:09:18;10.97;;;8.20;;
5499;SDS011;2772;42.700;23.304;2022-08-21T23:11:47;10.20;;;8.67;;
5499;SDS011;2772;42.700;23.304;2022-08-21T23:14:16;10.43;;;8.97;;
5499;SDS011;2772;42.700;23.304;2022-08-21T23:16:45;9.90;;;8.67;;
5499;SDS011;2772;42.700;23.304;2022-08-21T23:19:23;10.20;;;7.67;;
5499;SDS011;2772;42.700;23.304;2022-08-21T23:22:04;13.10;;;8.70;;
5499;SDS011;2772;42.700;23.304;2022-08-21T23:24:49;9.13;;;8.23;;
5499;SDS011;2772;42.700;23.304;2022-08-21T23:27:27;10.40;;;8.17;;
5499;SDS011;2772;42.700;23.304;2022-08-21T23:30:07;9.63;;;8.60;;
5499;SDS011;2772;42.700;23.304;2022-08-21T23:35:35;9.67;;;8.30;;
5499;SDS011;2772;42.700;23.304;2022-08-21T23:38:30;10.97;;;8.37;;
5499;SDS011;2772;42.700;23.304;2022-08-21T23:41:09;11.60;;;8.80;;
5499;SDS011;2772;42.700;23.304;2022-08-21T23:43:49;11.03;;;8.93;;
5499;SDS011;2772;42.700;23.304;2022-08-21T23:46:38;10.10;;;9.03;;
5499;SDS011;2772;42.700;23.304;2022-08-21T23:49:18;8.67;;;7.77;;
5499;SDS011;2772;42.700;23.304;2022-08-21T23:51:57;8.97;;;8.07;;
5499;SDS011;2772;42.700;23.304;2022-08-21T23:54:38;8.77;;;7.87;;
5499;SDS011;2772;42.700;23.304;2022-08-21T23:57:17;12.80;;;8.27;;
5499;SDS011;2772;42.700;23.304;2022-08-21T23:59:54;11.00;;;8.87;;
